Main page
METAR-TAF:

METAR-TAF

Airports :

Pyongyang Sunan International Airport

Pyongyang, North Korea

latitude: 39-02N, longitude: 125-47E, elevation: 36 m

METAR: missing

Time: 15:01 (06:01 UTC)

Forecast

The report was made 1 hour and 41 minutes ago, at 04:20 UTC
Forecast valid from 24 at 06 UTC to 25 at 06 UTC
Wind 10 kt from the North
Visibility 10 km or more
no clouds below 1500 m and no cumulonimbus
Temporary
from 24 at 12 UTC to 24 at 24 UTC
Visibility: 5000 m
Broken clouds at a height of 2000 ft
mist

TAF: ZKPY 240420Z 2406/2506 36005MPS CAVOK TX03/2407Z TNM05/2421Z TEMPO 2412/2424 5000 BR BKN020

Weather observations and forecasts of more than 4000 airports (METAR and TAF reports).

The available stations are represented by yellow and red dots on the map.

Hover mouse over dot to see the name of the station.

Then click to see weather observations and forecasts.

To change the map : click on the green buttons with a black cross to zoom in, on the green button with a dash to zoom out, or on the green arrows for adjacent maps.


METAR-TAF: